Terminal Aerodrome Forecast
Issued by NWS

Home | Current Version | Previous Version | Text Only | Print | Product List | Glossary On
Versions: 1 2 3 4 5 6 7 8 9 10 11 12 13 14 15 16 17 18 19
000
FTUS46 KLOX 202347
TAFOXR
TAF
KOXR 202347Z 2100/2124 28011KT P6SM SKC
     FM210400 33005KT P6SM SKC
     FM210700 04006KT P6SM SCT150 SCT200
     FM212000 27012KT P6SM SCT150 SCT200=

USA.gov is the U.S. government's official web portal to all federal, state and local government web resources and services.